sensor_id;sensor_type;location;lat;lon;timestamp;P1;durP1;ratioP1;P2;durP2;ratioP2
61391;SDS011;47261;52.892;5.738;2023-05-07T00:02:13;29.00;;;16.00;;
61391;SDS011;47261;52.892;5.738;2023-05-07T00:04:40;28.33;;;13.70;;
61391;SDS011;47261;52.892;5.738;2023-05-07T00:07:05;30.67;;;15.30;;
61391;SDS011;47261;52.892;5.738;2023-05-07T00:09:31;31.30;;;16.52;;
61391;SDS011;47261;52.892;5.738;2023-05-07T00:11:57;29.13;;;16.83;;
61391;SDS011;47261;52.892;5.738;2023-05-07T00:14:22;30.42;;;16.33;;
61391;SDS011;47261;52.892;5.738;2023-05-07T00:16:48;33.00;;;17.40;;
61391;SDS011;47261;52.892;5.738;2023-05-07T00:19:14;25.98;;;14.75;;
61391;SDS011;47261;52.892;5.738;2023-05-07T00:21:40;27.53;;;13.30;;
61391;SDS011;47261;52.892;5.738;2023-05-07T00:24:05;29.17;;;15.50;;
61391;SDS011;47261;52.892;5.738;2023-05-07T00:26:31;27.23;;;14.97;;
61391;SDS011;47261;52.892;5.738;2023-05-07T00:28:57;29.52;;;15.95;;
61391;SDS011;47261;52.892;5.738;2023-05-07T00:31:22;29.50;;;15.67;;
61391;SDS011;47261;52.892;5.738;2023-05-07T00:33:48;28.30;;;15.80;;
61391;SDS011;47261;52.892;5.738;2023-05-07T00:36:13;29.47;;;15.90;;
61391;SDS011;47261;52.892;5.738;2023-05-07T00:38:39;29.33;;;16.98;;
61391;SDS011;47261;52.892;5.738;2023-05-07T00:41:05;28.47;;;16.13;;
61391;SDS011;47261;52.892;5.738;2023-05-07T00:43:31;30.50;;;16.77;;
61391;SDS011;47261;52.892;5.738;2023-05-07T00:45:57;28.60;;;16.15;;
61391;SDS011;47261;52.892;5.738;2023-05-07T00:48:22;28.63;;;15.97;;
61391;SDS011;47261;52.892;5.738;2023-05-07T00:50:49;26.48;;;16.40;;
61391;SDS011;47261;52.892;5.738;2023-05-07T00:53:15;28.00;;;15.70;;
61391;SDS011;47261;52.892;5.738;2023-05-07T00:55:41;30.40;;;16.33;;
61391;SDS011;47261;52.892;5.738;2023-05-07T00:58:07;30.75;;;16.90;;
61391;SDS011;47261;52.892;5.738;2023-05-07T01:00:33;29.08;;;18.08;;
61391;SDS011;47261;52.892;5.738;2023-05-07T01:02:59;27.30;;;15.20;;
61391;SDS011;47261;52.892;5.738;2023-05-07T01:05:24;32.42;;;18.25;;
61391;SDS011;47261;52.892;5.738;2023-05-07T01:07:52;29.75;;;17.20;;
61391;SDS011;47261;52.892;5.738;2023-05-07T01:10:20;24.70;;;15.73;;
61391;SDS011;47261;52.892;5.738;2023-05-07T01:12:47;27.98;;;16.27;;
61391;SDS011;47261;52.892;5.738;2023-05-07T01:15:15;30.20;;;16.45;;
61391;SDS011;47261;52.892;5.738;2023-05-07T01:17:41;32.55;;;17.90;;
61391;SDS011;47261;52.892;5.738;2023-05-07T01:20:08;26.85;;;15.27;;
61391;SDS011;47261;52.892;5.738;2023-05-07T01:22:35;27.17;;;16.43;;
61391;SDS011;47261;52.892;5.738;2023-05-07T01:25:03;24.20;;;14.38;;
61391;SDS011;47261;52.892;5.738;2023-05-07T01:27:30;24.83;;;15.00;;
61391;SDS011;47261;52.892;5.738;2023-05-07T01:29:56;24.93;;;13.53;;
61391;SDS011;47261;52.892;5.738;2023-05-07T01:32:23;26.33;;;15.27;;
61391;SDS011;47261;52.892;5.738;2023-05-07T01:35:05;27.08;;;15.23;;
61391;SDS011;47261;52.892;5.738;2023-05-07T01:37:35;25.52;;;15.10;;
61391;SDS011;47261;52.892;5.738;2023-05-07T01:40:01;26.83;;;15.97;;
61391;SDS011;47261;52.892;5.738;2023-05-07T01:42:28;24.75;;;15.90;;
61391;SDS011;47261;52.892;5.738;2023-05-07T01:44:54;27.67;;;14.65;;
61391;SDS011;47261;52.892;5.738;2023-05-07T01:47:20;24.10;;;13.20;;
61391;SDS011;47261;52.892;5.738;2023-05-07T01:49:46;26.87;;;14.60;;
61391;SDS011;47261;52.892;5.738;2023-05-07T01:52:12;26.67;;;14.65;;
61391;SDS011;47261;52.892;5.738;2023-05-07T01:54:38;24.57;;;14.73;;
61391;SDS011;47261;52.892;5.738;2023-05-07T01:57:03;26.67;;;14.65;;
61391;SDS011;47261;52.892;5.738;2023-05-07T01:59:29;28.97;;;15.37;;
61391;SDS011;47261;52.892;5.738;2023-05-07T02:01:55;26.10;;;15.25;;
61391;SDS011;47261;52.892;5.738;2023-05-07T02:04:20;33.23;;;16.90;;
61391;SDS011;47261;52.892;5.738;2023-05-07T02:06:46;27.60;;;16.50;;
61391;SDS011;47261;52.892;5.738;2023-05-07T02:09:12;30.60;;;17.50;;
61391;SDS011;47261;52.892;5.738;2023-05-07T02:11:39;32.47;;;18.23;;
61391;SDS011;47261;52.892;5.738;2023-05-07T02:14:05;29.83;;;17.40;;
61391;SDS011;47261;52.892;5.738;2023-05-07T02:16:31;32.33;;;17.60;;
61391;SDS011;47261;52.892;5.738;2023-05-07T02:18:56;35.03;;;18.20;;
61391;SDS011;47261;52.892;5.738;2023-05-07T02:21:23;33.83;;;18.67;;
61391;SDS011;47261;52.892;5.738;2023-05-07T02:23:49;28.15;;;15.40;;
61391;SDS011;47261;52.892;5.738;2023-05-07T02:26:15;35.08;;;17.38;;
61391;SDS011;47261;52.892;5.738;2023-05-07T02:28:41;31.40;;;17.27;;
61391;SDS011;47261;52.892;5.738;2023-05-07T02:31:06;30.77;;;16.80;;
61391;SDS011;47261;52.892;5.738;2023-05-07T02:33:32;27.63;;;12.97;;
61391;SDS011;47261;52.892;5.738;2023-05-07T02:36:06;27.00;;;12.65;;
61391;SDS011;47261;52.892;5.738;2023-05-07T02:38:35;28.95;;;14.25;;
61391;SDS011;47261;52.892;5.738;2023-05-07T02:41:01;24.27;;;13.25;;
61391;SDS011;47261;52.892;5.738;2023-05-07T02:43:27;28.17;;;13.97;;
61391;SDS011;47261;52.892;5.738;2023-05-07T02:46:02;20.00;;;10.57;;
61391;SDS011;47261;52.892;5.738;2023-05-07T02:48:29;24.13;;;11.57;;
61391;SDS011;47261;52.892;5.738;2023-05-07T02:50:55;25.08;;;12.68;;
61391;SDS011;47261;52.892;5.738;2023-05-07T02:53:20;23.23;;;11.48;;
61391;SDS011;47261;52.892;5.738;2023-05-07T02:55:46;21.60;;;10.10;;
61391;SDS011;47261;52.892;5.738;2023-05-07T02:58:12;22.60;;;11.43;;
61391;SDS011;47261;52.892;5.738;2023-05-07T03:00:37;22.50;;;10.93;;
61391;SDS011;47261;52.892;5.738;2023-05-07T03:03:03;25.70;;;11.10;;
61391;SDS011;47261;52.892;5.738;2023-05-07T03:05:29;22.23;;;11.52;;
61391;SDS011;47261;52.892;5.738;2023-05-07T03:07:54;23.80;;;11.43;;
61391;SDS011;47261;52.892;5.738;2023-05-07T03:10:20;22.47;;;11.90;;
61391;SDS011;47261;52.892;5.738;2023-05-07T03:12:45;20.17;;;10.38;;
61391;SDS011;47261;52.892;5.738;2023-05-07T03:15:11;19.80;;;8.87;;
61391;SDS011;47261;52.892;5.738;2023-05-07T03:17:37;19.27;;;10.05;;
61391;SDS011;47261;52.892;5.738;2023-05-07T03:20:03;24.98;;;12.52;;
61391;SDS011;47261;52.892;5.738;2023-05-07T03:22:30;23.67;;;13.23;;
61391;SDS011;47261;52.892;5.738;2023-05-07T03:24:55;21.50;;;12.30;;
61391;SDS011;47261;52.892;5.738;2023-05-07T03:27:21;25.30;;;13.27;;
61391;SDS011;47261;52.892;5.738;2023-05-07T03:29:47;24.00;;;11.67;;
61391;SDS011;47261;52.892;5.738;2023-05-07T03:32:12;23.95;;;12.52;;
61391;SDS011;47261;52.892;5.738;2023-05-07T03:34:38;24.83;;;13.73;;
61391;SDS011;47261;52.892;5.738;2023-05-07T03:37:04;26.73;;;12.73;;
61391;SDS011;47261;52.892;5.738;2023-05-07T03:39:29;22.10;;;10.10;;
61391;SDS011;47261;52.892;5.738;2023-05-07T03:41:55;24.98;;;12.90;;
61391;SDS011;47261;52.892;5.738;2023-05-07T03:44:21;29.50;;;15.17;;
61391;SDS011;47261;52.892;5.738;2023-05-07T03:46:47;24.77;;;12.00;;
61391;SDS011;47261;52.892;5.738;2023-05-07T03:49:12;23.87;;;12.67;;
61391;SDS011;47261;52.892;5.738;2023-05-07T03:51:38;24.83;;;13.80;;
61391;SDS011;47261;52.892;5.738;2023-05-07T03:54:04;25.73;;;14.93;;
61391;SDS011;47261;52.892;5.738;2023-05-07T03:56:29;22.83;;;11.60;;
61391;SDS011;47261;52.892;5.738;2023-05-07T03:58:56;28.83;;;13.18;;
61391;SDS011;47261;52.892;5.738;2023-05-07T04:01:21;26.35;;;12.18;;
61391;SDS011;47261;52.892;5.738;2023-05-07T04:03:47;23.37;;;11.50;;
61391;SDS011;47261;52.892;5.738;2023-05-07T04:06:13;26.13;;;15.57;;
61391;SDS011;47261;52.892;5.738;2023-05-07T04:08:40;27.90;;;14.77;;
61391;SDS011;47261;52.892;5.738;2023-05-07T04:11:06;30.90;;;15.32;;
61391;SDS011;47261;52.892;5.738;2023-05-07T04:13:31;34.37;;;16.23;;
61391;SDS011;47261;52.892;5.738;2023-05-07T04:15:57;27.60;;;13.23;;
61391;SDS011;47261;52.892;5.738;2023-05-07T04:18:23;26.07;;;12.80;;
61391;SDS011;47261;52.892;5.738;2023-05-07T04:20:48;29.45;;;15.23;;
61391;SDS011;47261;52.892;5.738;2023-05-07T04:23:17;30.00;;;15.53;;
61391;SDS011;47261;52.892;5.738;2023-05-07T04:25:42;28.70;;;14.75;;
61391;SDS011;47261;52.892;5.738;2023-05-07T04:28:08;25.73;;;14.07;;
61391;SDS011;47261;52.892;5.738;2023-05-07T04:30:33;25.23;;;13.07;;
61391;SDS011;47261;52.892;5.738;2023-05-07T04:32:59;25.17;;;13.37;;
61391;SDS011;47261;52.892;5.738;2023-05-07T04:35:25;29.25;;;15.65;;
61391;SDS011;47261;52.892;5.738;2023-05-07T04:37:50;29.00;;;15.43;;
61391;SDS011;47261;52.892;5.738;2023-05-07T04:40:16;25.93;;;13.50;;
61391;SDS011;47261;52.892;5.738;2023-05-07T04:42:42;29.45;;;15.80;;
61391;SDS011;47261;52.892;5.738;2023-05-07T04:45:07;29.63;;;16.47;;
61391;SDS011;47261;52.892;5.738;2023-05-07T04:47:35;25.92;;;14.20;;
61391;SDS011;47261;52.892;5.738;2023-05-07T04:50:01;28.75;;;14.32;;
61391;SDS011;47261;52.892;5.738;2023-05-07T04:52:26;32.07;;;16.07;;
61391;SDS011;47261;52.892;5.738;2023-05-07T04:54:52;32.63;;;16.73;;
61391;SDS011;47261;52.892;5.738;2023-05-07T04:57:18;34.43;;;16.93;;
61391;SDS011;47261;52.892;5.738;2023-05-07T04:59:43;30.50;;;15.53;;
61391;SDS011;47261;52.892;5.738;2023-05-07T05:02:12;30.10;;;14.73;;
61391;SDS011;47261;52.892;5.738;2023-05-07T05:04:37;28.83;;;14.70;;
61391;SDS011;47261;52.892;5.738;2023-05-07T05:07:03;34.37;;;16.07;;
61391;SDS011;47261;52.892;5.738;2023-05-07T05:09:29;37.97;;;17.05;;
61391;SDS011;47261;52.892;5.738;2023-05-07T05:11:55;26.00;;;13.90;;
61391;SDS011;47261;52.892;5.738;2023-05-07T05:14:21;28.30;;;15.10;;
61391;SDS011;47261;52.892;5.738;2023-05-07T05:16:46;31.38;;;16.45;;
61391;SDS011;47261;52.892;5.738;2023-05-07T05:19:12;33.60;;;15.17;;
61391;SDS011;47261;52.892;5.738;2023-05-07T05:21:37;28.43;;;14.37;;
61391;SDS011;47261;52.892;5.738;2023-05-07T05:24:03;26.83;;;12.00;;
61391;SDS011;47261;52.892;5.738;2023-05-07T05:26:29;30.75;;;14.75;;
61391;SDS011;47261;52.892;5.738;2023-05-07T05:28:54;33.87;;;16.87;;
61391;SDS011;47261;52.892;5.738;2023-05-07T05:31:20;33.85;;;17.52;;
61391;SDS011;47261;52.892;5.738;2023-05-07T05:33:46;37.57;;;17.77;;
61391;SDS011;47261;52.892;5.738;2023-05-07T05:36:12;40.85;;;19.08;;
61391;SDS011;47261;52.892;5.738;2023-05-07T05:38:38;34.17;;;16.03;;
61391;SDS011;47261;52.892;5.738;2023-05-07T05:41:04;38.38;;;18.33;;
61391;SDS011;47261;52.892;5.738;2023-05-07T05:43:30;34.65;;;17.17;;
61391;SDS011;47261;52.892;5.738;2023-05-07T05:45:56;35.60;;;18.00;;
61391;SDS011;47261;52.892;5.738;2023-05-07T05:48:22;36.92;;;18.85;;
61391;SDS011;47261;52.892;5.738;2023-05-07T05:50:48;35.72;;;18.33;;
61391;SDS011;47261;52.892;5.738;2023-05-07T05:53:14;42.67;;;18.37;;
61391;SDS011;47261;52.892;5.738;2023-05-07T05:55:41;38.75;;;18.80;;
61391;SDS011;47261;52.892;5.738;2023-05-07T05:58:06;40.28;;;19.63;;
61391;SDS011;47261;52.892;5.738;2023-05-07T06:00:32;38.87;;;19.53;;
61391;SDS011;47261;52.892;5.738;2023-05-07T06:02:58;35.72;;;17.75;;
61391;SDS011;47261;52.892;5.738;2023-05-07T06:05:24;28.83;;;14.40;;
61391;SDS011;47261;52.892;5.738;2023-05-07T06:07:49;44.75;;;20.73;;
61391;SDS011;47261;52.892;5.738;2023-05-07T06:10:18;33.87;;;16.93;;
61391;SDS011;47261;52.892;5.738;2023-05-07T06:12:44;36.03;;;17.85;;
61391;SDS011;47261;52.892;5.738;2023-05-07T06:15:09;44.83;;;19.65;;
61391;SDS011;47261;52.892;5.738;2023-05-07T06:17:38;37.53;;;18.33;;
61391;SDS011;47261;52.892;5.738;2023-05-07T06:20:04;38.78;;;21.83;;
61391;SDS011;47261;52.892;5.738;2023-05-07T06:22:30;38.97;;;20.08;;
61391;SDS011;47261;52.892;5.738;2023-05-07T06:24:56;36.00;;;18.30;;
61391;SDS011;47261;52.892;5.738;2023-05-07T06:27:21;37.33;;;18.83;;
61391;SDS011;47261;52.892;5.738;2023-05-07T06:29:48;38.03;;;19.95;;
61391;SDS011;47261;52.892;5.738;2023-05-07T06:32:14;38.20;;;18.60;;
61391;SDS011;47261;52.892;5.738;2023-05-07T06:34:40;39.70;;;20.40;;
61391;SDS011;47261;52.892;5.738;2023-05-07T06:37:06;38.13;;;20.25;;
61391;SDS011;47261;52.892;5.738;2023-05-07T06:39:32;37.78;;;18.88;;
61391;SDS011;47261;52.892;5.738;2023-05-07T06:41:59;40.10;;;19.95;;
61391;SDS011;47261;52.892;5.738;2023-05-07T06:44:26;36.38;;;18.63;;
61391;SDS011;47261;52.892;5.738;2023-05-07T06:46:51;40.77;;;19.93;;
61391;SDS011;47261;52.892;5.738;2023-05-07T06:49:17;35.23;;;17.60;;
61391;SDS011;47261;52.892;5.738;2023-05-07T06:51:43;40.00;;;21.02;;
61391;SDS011;47261;52.892;5.738;2023-05-07T06:54:09;38.28;;;20.17;;
61391;SDS011;47261;52.892;5.738;2023-05-07T06:56:34;40.87;;;20.63;;
61391;SDS011;47261;52.892;5.738;2023-05-07T06:59:01;39.22;;;17.58;;
61391;SDS011;47261;52.892;5.738;2023-05-07T07:01:27;36.97;;;19.43;;
61391;SDS011;47261;52.892;5.738;2023-05-07T07:03:53;41.05;;;20.10;;
61391;SDS011;47261;52.892;5.738;2023-05-07T07:06:18;37.53;;;18.07;;
61391;SDS011;47261;52.892;5.738;2023-05-07T07:08:45;36.37;;;18.60;;
61391;SDS011;47261;52.892;5.738;2023-05-07T07:11:10;43.42;;;20.83;;
61391;SDS011;47261;52.892;5.738;2023-05-07T07:13:36;36.30;;;19.00;;
61391;SDS011;47261;52.892;5.738;2023-05-07T07:16:02;33.72;;;17.58;;
61391;SDS011;47261;52.892;5.738;2023-05-07T07:18:28;34.33;;;18.70;;
61391;SDS011;47261;52.892;5.738;2023-05-07T07:20:54;33.23;;;17.90;;
61391;SDS011;47261;52.892;5.738;2023-05-07T07:23:19;39.50;;;19.95;;
61391;SDS011;47261;52.892;5.738;2023-05-07T07:25:45;36.83;;;20.23;;
61391;SDS011;47261;52.892;5.738;2023-05-07T07:28:11;34.80;;;19.00;;
61391;SDS011;47261;52.892;5.738;2023-05-07T07:30:37;33.25;;;17.83;;
61391;SDS011;47261;52.892;5.738;2023-05-07T07:33:03;37.33;;;20.25;;
61391;SDS011;47261;52.892;5.738;2023-05-07T07:35:29;33.77;;;18.13;;
61391;SDS011;47261;52.892;5.738;2023-05-07T07:37:54;35.92;;;18.42;;
61391;SDS011;47261;52.892;5.738;2023-05-07T07:40:20;33.13;;;17.30;;
61391;SDS011;47261;52.892;5.738;2023-05-07T07:42:46;29.25;;;16.33;;
61391;SDS011;47261;52.892;5.738;2023-05-07T07:45:12;33.17;;;17.07;;
61391;SDS011;47261;52.892;5.738;2023-05-07T07:47:38;31.70;;;17.42;;
61391;SDS011;47261;52.892;5.738;2023-05-07T07:50:04;31.97;;;16.60;;
61391;SDS011;47261;52.892;5.738;2023-05-07T07:52:30;30.17;;;15.98;;
61391;SDS011;47261;52.892;5.738;2023-05-07T07:54:56;29.65;;;16.50;;
61391;SDS011;47261;52.892;5.738;2023-05-07T07:57:21;32.40;;;16.00;;
61391;SDS011;47261;52.892;5.738;2023-05-07T07:59:47;30.50;;;16.27;;
61391;SDS011;47261;52.892;5.738;2023-05-07T08:02:13;32.83;;;18.63;;
61391;SDS011;47261;52.892;5.738;2023-05-07T08:04:38;30.23;;;15.40;;
61391;SDS011;47261;52.892;5.738;2023-05-07T08:07:04;30.45;;;17.13;;
61391;SDS011;47261;52.892;5.738;2023-05-07T08:09:30;31.97;;;17.83;;
61391;SDS011;47261;52.892;5.738;2023-05-07T08:11:56;28.65;;;15.00;;
61391;SDS011;47261;52.892;5.738;2023-05-07T08:14:22;28.48;;;15.07;;
61391;SDS011;47261;52.892;5.738;2023-05-07T08:16:48;31.57;;;17.50;;
61391;SDS011;47261;52.892;5.738;2023-05-07T08:19:13;31.60;;;17.00;;
61391;SDS011;47261;52.892;5.738;2023-05-07T08:21:39;25.77;;;13.50;;
61391;SDS011;47261;52.892;5.738;2023-05-07T08:24:05;28.08;;;15.70;;
61391;SDS011;47261;52.892;5.738;2023-05-07T08:26:31;28.15;;;15.55;;
61391;SDS011;47261;52.892;5.738;2023-05-07T08:28:57;31.10;;;16.43;;
61391;SDS011;47261;52.892;5.738;2023-05-07T08:31:22;33.85;;;18.15;;
61391;SDS011;47261;52.892;5.738;2023-05-07T08:33:50;30.70;;;16.87;;
61391;SDS011;47261;52.892;5.738;2023-05-07T08:36:15;29.75;;;16.65;;
61391;SDS011;47261;52.892;5.738;2023-05-07T08:38:41;30.00;;;14.27;;
61391;SDS011;47261;52.892;5.738;2023-05-07T08:41:09;27.77;;;15.85;;
61391;SDS011;47261;52.892;5.738;2023-05-07T08:43:35;25.58;;;15.82;;
61391;SDS011;47261;52.892;5.738;2023-05-07T08:46:02;30.20;;;16.92;;
61391;SDS011;47261;52.892;5.738;2023-05-07T08:48:29;28.85;;;16.15;;
61391;SDS011;47261;52.892;5.738;2023-05-07T08:50:57;26.17;;;13.03;;
61391;SDS011;47261;52.892;5.738;2023-05-07T08:53:24;24.55;;;13.70;;
61391;SDS011;47261;52.892;5.738;2023-05-07T08:55:50;25.70;;;14.55;;
61391;SDS011;47261;52.892;5.738;2023-05-07T08:58:17;29.23;;;16.95;;
61391;SDS011;47261;52.892;5.738;2023-05-07T09:00:43;30.10;;;16.97;;
61391;SDS011;47261;52.892;5.738;2023-05-07T09:03:09;27.55;;;14.73;;
61391;SDS011;47261;52.892;5.738;2023-05-07T09:05:37;37.00;;;15.57;;
61391;SDS011;47261;52.892;5.738;2023-05-07T09:08:03;25.90;;;14.93;;
61391;SDS011;47261;52.892;5.738;2023-05-07T09:10:32;28.48;;;15.52;;
61391;SDS011;47261;52.892;5.738;2023-05-07T09:12:58;28.52;;;17.05;;
61391;SDS011;47261;52.892;5.738;2023-05-07T09:15:24;30.30;;;15.07;;
61391;SDS011;47261;52.892;5.738;2023-05-07T09:17:51;30.77;;;18.50;;
61391;SDS011;47261;52.892;5.738;2023-05-07T09:20:16;25.50;;;14.18;;
61391;SDS011;47261;52.892;5.738;2023-05-07T09:22:42;30.33;;;17.87;;
61391;SDS011;47261;52.892;5.738;2023-05-07T09:25:09;29.55;;;17.33;;
61391;SDS011;47261;52.892;5.738;2023-05-07T09:27:35;27.35;;;16.50;;
61391;SDS011;47261;52.892;5.738;2023-05-07T09:30:04;30.20;;;16.47;;
61391;SDS011;47261;52.892;5.738;2023-05-07T09:32:33;29.83;;;15.77;;
61391;SDS011;47261;52.892;5.738;2023-05-07T09:35:00;25.63;;;14.80;;
61391;SDS011;47261;52.892;5.738;2023-05-07T09:37:26;31.40;;;16.50;;
61391;SDS011;47261;52.892;5.738;2023-05-07T09:39:52;27.33;;;14.77;;
61391;SDS011;47261;52.892;5.738;2023-05-07T09:42:22;27.63;;;17.20;;
61391;SDS011;47261;52.892;5.738;2023-05-07T09:44:52;27.08;;;15.30;;
61391;SDS011;47261;52.892;5.738;2023-05-07T09:47:19;33.33;;;17.75;;
61391;SDS011;47261;52.892;5.738;2023-05-07T09:49:46;32.38;;;17.23;;
61391;SDS011;47261;52.892;5.738;2023-05-07T09:52:13;30.33;;;17.70;;
61391;SDS011;47261;52.892;5.738;2023-05-07T09:54:39;28.63;;;16.83;;
61391;SDS011;47261;52.892;5.738;2023-05-07T09:57:08;27.42;;;15.25;;
61391;SDS011;47261;52.892;5.738;2023-05-07T09:59:37;28.90;;;18.15;;
61391;SDS011;47261;52.892;5.738;2023-05-07T10:02:03;27.75;;;15.73;;
61391;SDS011;47261;52.892;5.738;2023-05-07T10:04:31;28.37;;;16.47;;
61391;SDS011;47261;52.892;5.738;2023-05-07T10:06:57;28.40;;;17.08;;
61391;SDS011;47261;52.892;5.738;2023-05-07T10:09:23;26.15;;;16.88;;
61391;SDS011;47261;52.892;5.738;2023-05-07T10:11:51;28.08;;;17.27;;
61391;SDS011;47261;52.892;5.738;2023-05-07T10:14:17;27.35;;;16.83;;
61391;SDS011;47261;52.892;5.738;2023-05-07T10:16:45;28.83;;;18.00;;
61391;SDS011;47261;52.892;5.738;2023-05-07T10:19:12;29.05;;;17.80;;
61391;SDS011;47261;52.892;5.738;2023-05-07T10:21:42;29.15;;;18.33;;
61391;SDS011;47261;52.892;5.738;2023-05-07T10:24:16;29.48;;;17.33;;
61391;SDS011;47261;52.892;5.738;2023-05-07T10:26:48;29.95;;;18.67;;
61391;SDS011;47261;52.892;5.738;2023-05-07T10:34:36;28.38;;;17.40;;
61391;SDS011;47261;52.892;5.738;2023-05-07T10:37:05;26.45;;;16.08;;
61391;SDS011;47261;52.892;5.738;2023-05-07T10:39:32;27.58;;;17.45;;
61391;SDS011;47261;52.892;5.738;2023-05-07T10:42:07;27.07;;;16.93;;
61391;SDS011;47261;52.892;5.738;2023-05-07T10:44:33;28.50;;;16.83;;
61391;SDS011;47261;52.892;5.738;2023-05-07T10:47:10;25.65;;;16.10;;
61391;SDS011;47261;52.892;5.738;2023-05-07T10:54:43;27.58;;;17.42;;
61391;SDS011;47261;52.892;5.738;2023-05-07T10:57:52;27.50;;;17.05;;
61391;SDS011;47261;52.892;5.738;2023-05-07T11:00:40;25.33;;;13.88;;
61391;SDS011;47261;52.892;5.738;2023-05-07T11:05:25;24.20;;;15.20;;
61391;SDS011;47261;52.892;5.738;2023-05-07T11:07:58;25.15;;;16.15;;
61391;SDS011;47261;52.892;5.738;2023-05-07T11:13:15;26.70;;;16.48;;
61391;SDS011;47261;52.892;5.738;2023-05-07T11:15:46;31.05;;;17.10;;
61391;SDS011;47261;52.892;5.738;2023-05-07T11:18:16;27.70;;;15.83;;
61391;SDS011;47261;52.892;5.738;2023-05-07T11:26:03;28.02;;;16.65;;
61391;SDS011;47261;52.892;5.738;2023-05-07T11:28:30;28.73;;;16.85;;
61391;SDS011;47261;52.892;5.738;2023-05-07T11:31:01;26.23;;;15.33;;
61391;SDS011;47261;52.892;5.738;2023-05-07T11:33:27;27.05;;;17.17;;
61391;SDS011;47261;52.892;5.738;2023-05-07T11:35:54;25.70;;;15.50;;
61391;SDS011;47261;52.892;5.738;2023-05-07T11:38:20;26.63;;;16.48;;
61391;SDS011;47261;52.892;5.738;2023-05-07T11:43:18;30.05;;;16.95;;
61391;SDS011;47261;52.892;5.738;2023-05-07T11:45:47;26.98;;;16.05;;
61391;SDS011;47261;52.892;5.738;2023-05-07T11:48:14;26.63;;;16.20;;
61391;SDS011;47261;52.892;5.738;2023-05-07T11:50:50;26.58;;;16.42;;
61391;SDS011;47261;52.892;5.738;2023-05-07T11:53:19;22.80;;;14.67;;
61391;SDS011;47261;52.892;5.738;2023-05-07T11:55:51;27.48;;;17.30;;
61391;SDS011;47261;52.892;5.738;2023-05-07T11:58:20;25.25;;;16.30;;
61391;SDS011;47261;52.892;5.738;2023-05-07T12:00:50;28.45;;;18.23;;
61391;SDS011;47261;52.892;5.738;2023-05-07T12:03:16;27.80;;;16.92;;
61391;SDS011;47261;52.892;5.738;2023-05-07T12:05:43;27.13;;;17.70;;
61391;SDS011;47261;52.892;5.738;2023-05-07T12:08:15;25.50;;;16.38;;
61391;SDS011;47261;52.892;5.738;2023-05-07T12:10:41;27.13;;;18.23;;
61391;SDS011;47261;52.892;5.738;2023-05-07T12:13:17;27.15;;;18.40;;
61391;SDS011;47261;52.892;5.738;2023-05-07T12:15:44;28.20;;;17.42;;
61391;SDS011;47261;52.892;5.738;2023-05-07T12:18:12;31.50;;;19.03;;
61391;SDS011;47261;52.892;5.738;2023-05-07T12:20:38;28.08;;;17.80;;
61391;SDS011;47261;52.892;5.738;2023-05-07T12:23:04;25.83;;;17.65;;
61391;SDS011;47261;52.892;5.738;2023-05-07T12:25:37;30.13;;;19.58;;
61391;SDS011;47261;52.892;5.738;2023-05-07T12:28:03;28.37;;;18.97;;
61391;SDS011;47261;52.892;5.738;2023-05-07T12:30:39;29.13;;;18.52;;
61391;SDS011;47261;52.892;5.738;2023-05-07T12:33:05;28.65;;;19.15;;
61391;SDS011;47261;52.892;5.738;2023-05-07T12:35:31;26.90;;;17.30;;
61391;SDS011;47261;52.892;5.738;2023-05-07T12:38:01;27.33;;;17.87;;
61391;SDS011;47261;52.892;5.738;2023-05-07T12:40:36;28.40;;;17.58;;
61391;SDS011;47261;52.892;5.738;2023-05-07T12:43:02;26.80;;;16.92;;
61391;SDS011;47261;52.892;5.738;2023-05-07T12:45:27;28.23;;;18.17;;
61391;SDS011;47261;52.892;5.738;2023-05-07T12:47:53;29.10;;;17.65;;
61391;SDS011;47261;52.892;5.738;2023-05-07T12:50:18;30.30;;;17.77;;
61391;SDS011;47261;52.892;5.738;2023-05-07T12:52:47;27.08;;;16.42;;
61391;SDS011;47261;52.892;5.738;2023-05-07T12:55:16;27.15;;;17.30;;
61391;SDS011;47261;52.892;5.738;2023-05-07T12:57:42;24.33;;;16.35;;
61391;SDS011;47261;52.892;5.738;2023-05-07T13:00:10;29.30;;;18.20;;
61391;SDS011;47261;52.892;5.738;2023-05-07T13:02:37;25.23;;;15.73;;
61391;SDS011;47261;52.892;5.738;2023-05-07T13:05:05;25.63;;;15.23;;
61391;SDS011;47261;52.892;5.738;2023-05-07T13:07:30;23.00;;;15.50;;
61391;SDS011;47261;52.892;5.738;2023-05-07T13:09:56;25.37;;;16.40;;
61391;SDS011;47261;52.892;5.738;2023-05-07T13:12:22;24.42;;;15.77;;
61391;SDS011;47261;52.892;5.738;2023-05-07T13:14:47;27.23;;;16.70;;
61391;SDS011;47261;52.892;5.738;2023-05-07T13:17:13;24.23;;;14.23;;
61391;SDS011;47261;52.892;5.738;2023-05-07T13:19:38;22.47;;;14.97;;
61391;SDS011;47261;52.892;5.738;2023-05-07T13:22:04;24.73;;;14.63;;
61391;SDS011;47261;52.892;5.738;2023-05-07T13:24:30;22.52;;;13.60;;
61391;SDS011;47261;52.892;5.738;2023-05-07T13:26:55;24.83;;;15.33;;
61391;SDS011;47261;52.892;5.738;2023-05-07T13:29:21;24.58;;;13.73;;
61391;SDS011;47261;52.892;5.738;2023-05-07T13:31:54;22.17;;;13.68;;
61391;SDS011;47261;52.892;5.738;2023-05-07T13:34:19;22.43;;;11.80;;
61391;SDS011;47261;52.892;5.738;2023-05-07T13:36:45;21.02;;;11.95;;
61391;SDS011;47261;52.892;5.738;2023-05-07T13:39:11;20.02;;;12.02;;
61391;SDS011;47261;52.892;5.738;2023-05-07T13:41:36;21.70;;;13.10;;
61391;SDS011;47261;52.892;5.738;2023-05-07T13:44:02;19.63;;;12.47;;
61391;SDS011;47261;52.892;5.738;2023-05-07T13:46:28;19.20;;;11.50;;
61391;SDS011;47261;52.892;5.738;2023-05-07T13:48:54;17.73;;;11.65;;
61391;SDS011;47261;52.892;5.738;2023-05-07T13:51:20;18.80;;;11.53;;
61391;SDS011;47261;52.892;5.738;2023-05-07T13:53:46;18.38;;;10.95;;
61391;SDS011;47261;52.892;5.738;2023-05-07T13:56:12;16.40;;;10.33;;
61391;SDS011;47261;52.892;5.738;2023-05-07T13:58:39;18.13;;;10.10;;
61391;SDS011;47261;52.892;5.738;2023-05-07T14:01:04;18.15;;;10.50;;
61391;SDS011;47261;52.892;5.738;2023-05-07T14:03:30;17.87;;;11.67;;
61391;SDS011;47261;52.892;5.738;2023-05-07T14:05:57;18.98;;;12.27;;
61391;SDS011;47261;52.892;5.738;2023-05-07T14:08:25;23.38;;;12.85;;
61391;SDS011;47261;52.892;5.738;2023-05-07T14:10:50;21.88;;;13.45;;
61391;SDS011;47261;52.892;5.738;2023-05-07T14:13:16;19.00;;;12.00;;
61391;SDS011;47261;52.892;5.738;2023-05-07T14:15:42;20.65;;;12.60;;
61391;SDS011;47261;52.892;5.738;2023-05-07T14:18:11;20.48;;;12.55;;
61391;SDS011;47261;52.892;5.738;2023-05-07T14:20:37;18.40;;;11.07;;
61391;SDS011;47261;52.892;5.738;2023-05-07T14:23:03;19.08;;;11.82;;
61391;SDS011;47261;52.892;5.738;2023-05-07T14:25:29;18.58;;;12.07;;
61391;SDS011;47261;52.892;5.738;2023-05-07T14:27:55;18.03;;;12.70;;
61391;SDS011;47261;52.892;5.738;2023-05-07T14:30:20;19.70;;;13.15;;
61391;SDS011;47261;52.892;5.738;2023-05-07T14:32:49;22.08;;;12.90;;
61391;SDS011;47261;52.892;5.738;2023-05-07T14:35:15;19.37;;;13.07;;
61391;SDS011;47261;52.892;5.738;2023-05-07T14:37:41;21.10;;;12.23;;
61391;SDS011;47261;52.892;5.738;2023-05-07T14:40:06;18.53;;;11.57;;
61391;SDS011;47261;52.892;5.738;2023-05-07T14:42:33;20.30;;;11.97;;